Time;durP1;ratioP1;P1;durP2;ratioP2;P2;SDS_P1;SDS_P2;PMS_P1;PMS_P2;Temp;Humidity;BMP_temperature;BMP_pressure;BME280_temperature;BME280_humidity;BME280_pressure;Samples;Min_cycle;Max_cycle;Signal;HPM_P1;HPM_P2
2021/05/27 00:02:32;;;;;;;4.55;1.42;;;;;;;11.01;59.80;99739.28;4347516;33;20088;-96
2021/05/27 00:05:45;;;;;;;3.70;1.35;;;;;;;10.74;59.78;99743.66;4347835;33;20118;-96
2021/05/27 00:08:34;;;;;;;1.90;1.12;;;;;;;10.63;59.78;99740.53;4359192;32;20122;-96
2021/05/27 00:11:04;;;;;;;5.32;1.40;;;;;;;10.73;59.78;99739.34;4342123;33;20215;-96
2021/05/27 00:13:34;;;;;;;4.05;1.23;;;;;;;10.69;59.79;99737.75;4347261;32;20091;-96
2021/05/27 00:16:02;;;;;;;3.30;1.20;;;;;;;10.66;59.78;99734.41;4371440;32;20407;-96
2021/05/27 00:18:28;;;;;;;3.05;1.08;;;;;;;10.64;59.78;99737.03;4369049;32;20125;-96
2021/05/27 00:20:53;;;;;;;2.20;1.10;;;;;;;10.57;59.77;99738.12;4326986;32;20122;-95
2021/05/27 00:23:19;;;;;;;2.65;1.12;;;;;;;10.79;59.78;99734.84;4326299;32;20158;-95
2021/05/27 00:25:44;;;;;;;2.55;1.08;;;;;;;10.69;59.78;99745.56;4336814;32;20153;-94
2021/05/27 00:28:09;;;;;;;5.87;0.98;;;;;;;10.76;59.79;99741.84;4381472;32;20126;-95
2021/05/27 00:30:35;;;;;;;3.37;1.10;;;;;;;10.85;59.79;99740.69;4381673;32;20153;-93
2021/05/27 00:33:00;;;;;;;3.80;1.17;;;;;;;10.82;59.78;99737.34;4381935;32;20141;-94
2021/05/27 00:35:26;;;;;;;2.53;1.37;;;;;;;10.59;59.77;99736.34;4381413;32;20123;-94
2021/05/27 00:37:51;;;;;;;3.45;1.00;;;;;;;10.63;59.78;99743.13;4381690;32;20151;-95
2021/05/27 00:40:17;;;;;;;6.87;1.37;;;;;;;10.67;59.77;99742.16;4381576;32;20168;-94
2021/05/27 00:42:43;;;;;;;4.03;1.85;;;;;;;10.57;59.77;99745.94;4381466;32;20082;-93
2021/05/27 00:45:10;;;;;;;3.97;1.40;;;;;;;10.21;59.75;99758.38;4393915;32;20136;-94
2021/05/27 00:47:35;;;;;;;3.30;0.80;;;;;;;10.19;59.75;99760.13;4392987;32;20136;-94
2021/05/27 00:50:01;;;;;;;1.77;1.00;;;;;;;10.23;59.75;99750.50;4381333;32;20098;-94
2021/05/27 00:52:26;;;;;;;5.60;1.42;;;;;;;10.30;59.75;99745.06;4382998;32;20091;-94
2021/05/27 00:54:53;;;;;;;4.85;1.27;;;;;;;10.24;59.75;99741.81;4379555;32;21204;-94
2021/05/27 00:57:37;;;;;;;2.78;1.10;;;;;;;10.45;59.76;99744.59;4364766;32;93822;-94
2021/05/27 01:00:05;;;;;;;4.32;1.83;;;;;;;10.38;59.76;99742.22;4347884;32;20516;-93
2021/05/27 01:02:30;;;;;;;3.00;1.00;;;;;;;10.40;59.76;99743.00;4366428;32;20107;-93
2021/05/27 01:04:55;;;;;;;4.68;1.20;;;;;;;10.49;59.77;99736.69;4379109;32;20131;-93
2021/05/27 01:07:22;;;;;;;3.28;1.05;;;;;;;10.59;59.77;99738.94;4341450;32;20570;-93
2021/05/27 01:09:48;;;;;;;5.35;1.05;;;;;;;10.49;59.77;99742.75;4367827;32;20157;-94
2021/05/27 01:12:13;;;;;;;3.40;1.20;;;;;;;10.23;59.75;99747.91;4379114;32;20255;-95
2021/05/27 01:17:25;;;;;;;4.43;1.12;;;;;;;10.43;59.76;99748.16;4379178;32;20144;-94
2021/05/27 01:19:52;;;;;;;3.75;1.37;;;;;;;10.48;59.77;99738.44;4376956;32;20086;-94
2021/05/27 01:22:19;;;;;;;7.65;1.23;;;;;;;10.50;59.77;99735.78;4378690;32;20094;-93
2021/05/27 01:24:44;;;;;;;5.95;1.20;;;;;;;10.54;59.76;99734.78;4378991;32;20098;-94
2021/05/27 01:27:09;;;;;;;2.70;1.12;;;;;;;10.07;59.74;99745.72;4380016;32;20413;-94
2021/05/27 01:29:35;;;;;;;6.93;1.37;;;;;;;9.96;59.74;99729.59;4367968;32;20158;-94
2021/05/27 01:32:00;;;;;;;3.70;1.17;;;;;;;10.06;59.74;99738.81;4378686;32;20490;-94
2021/05/27 01:35:05;;;;;;;2.50;1.20;;;;;;;10.04;59.74;99739.78;4381847;32;20087;-95
2021/05/27 01:37:32;;;;;;;3.95;1.20;;;;;;;9.91;59.73;99741.87;4385343;32;20086;-95
2021/05/27 01:39:58;;;;;;;3.55;1.17;;;;;;;10.03;59.74;99741.53;4367492;32;20144;-94
2021/05/27 01:42:23;;;;;;;2.47;1.05;;;;;;;10.38;59.76;99732.66;4373121;32;20104;-93
2021/05/27 01:44:49;;;;;;;6.60;1.25;;;;;;;10.24;59.76;99734.84;4379362;32;20123;-95
2021/05/27 01:47:14;;;;;;;3.40;1.73;;;;;;;10.16;59.74;99736.78;4389960;32;20456;-94
2021/05/27 01:49:44;;;;;;;3.58;1.48;;;;;;;9.96;59.74;99732.22;4389647;32;20141;-95
2021/05/27 01:52:58;;;;;;;1.37;1.08;;;;;;;10.01;59.73;99739.88;4393262;32;20089;-96
2021/05/27 01:55:47;;;;;;;3.60;1.10;;;;;;;9.88;59.73;99728.13;4419609;32;20086;-96
2021/05/27 01:58:16;;;;;;;2.63;1.20;;;;;;;9.83;59.72;99730.84;4396083;32;20078;-95
2021/05/27 02:00:41;;;;;;;2.37;1.23;;;;;;;9.90;59.73;99726.31;4404413;32;20175;-95
2021/05/27 02:03:07;;;;;;;2.37;1.10;;;;;;;9.83;59.73;99723.06;4389450;32;20141;-95
2021/05/27 02:05:33;;;;;;;5.72;1.58;;;;;;;9.94;59.74;99723.59;4401593;32;20102;-96
2021/05/27 02:08:00;;;;;;;1.67;0.68;;;;;;;10.05;59.74;99720.66;4389259;32;20113;-95
2021/05/27 02:10:26;;;;;;;2.22;0.98;;;;;;;10.09;59.73;99719.66;4404891;32;20158;-95
2021/05/27 02:12:51;;;;;;;3.47;1.20;;;;;;;9.78;59.72;99723.19;4393423;32;20109;-95
2021/05/27 02:15:18;;;;;;;5.65;1.10;;;;;;;9.88;59.73;99723.75;4394645;32;20136;-95
2021/05/27 02:18:30;;;;;;;2.92;1.33;;;;;;;9.84;59.72;99717.81;4399822;32;20534;-96
2021/05/27 02:20:57;;;;;;;3.30;1.05;;;;;;;9.82;59.72;99713.56;4409560;32;20104;-94
2021/05/27 02:23:25;;;;;;;4.18;1.35;;;;;;;9.78;59.72;99709.34;4408721;32;20093;-96
2021/05/27 02:26:15;;;;;;;4.22;0.98;;;;;;;9.75;59.72;99722.44;4401223;32;20083;-95
2021/05/27 02:28:43;;;;;;;1.80;0.80;;;;;;;9.88;59.74;99717.72;4405310;32;20110;-95
2021/05/27 02:31:09;;;;;;;3.72;1.12;;;;;;;9.78;59.72;99722.34;4391369;32;20093;-95
2021/05/27 02:33:34;;;;;;;3.22;1.00;;;;;;;9.90;59.73;99723.72;4393565;32;20140;-94
2021/05/27 02:36:00;;;;;;;3.85;1.00;;;;;;;9.71;59.72;99726.03;4392273;32;20126;-95
2021/05/27 02:38:26;;;;;;;1.60;0.90;;;;;;;9.78;59.72;99724.94;4393281;32;20162;-95
2021/05/27 02:40:52;;;;;;;2.15;0.90;;;;;;;9.78;59.72;99724.94;4392357;32;20097;-96
2021/05/27 02:43:17;;;;;;;6.22;0.82;;;;;;;9.66;59.72;99727.88;4405160;32;20108;-96
2021/05/27 02:45:43;;;;;;;2.15;0.90;;;;;;;9.65;59.72;99720.97;4390741;32;20380;-95
2021/05/27 02:48:08;;;;;;;2.85;1.10;;;;;;;9.80;59.73;99723.16;4389174;32;20205;-96
2021/05/27 02:50:36;;;;;;;5.62;0.90;;;;;;;9.59;59.71;99719.41;4397063;32;20116;-96
2021/05/27 02:53:08;;;;;;;2.00;0.80;;;;;;;9.59;59.71;99723.75;4396160;32;20838;-96
2021/05/27 02:55:36;;;;;;;3.08;1.00;;;;;;;9.80;59.73;99728.34;4412739;32;20074;-95
2021/05/27 02:58:01;;;;;;;2.58;0.88;;;;;;;10.03;59.74;99732.88;4395275;32;20141;-95
2021/05/27 03:00:27;;;;;;;4.32;1.25;;;;;;;9.98;59.74;99738.22;4401524;32;20109;-94
2021/05/27 03:02:54;;;;;;;2.65;0.90;;;;;;;9.67;59.72;99725.25;4403147;32;20140;-94
2021/05/27 03:05:20;;;;;;;3.45;1.20;;;;;;;9.80;59.73;99724.00;4391353;32;20813;-95
2021/05/27 03:07:48;;;;;;;2.35;1.10;;;;;;;9.89;59.73;99722.00;4389268;32;20137;-95
2021/05/27 03:10:15;;;;;;;4.32;1.08;;;;;;;9.76;59.72;99721.53;4388497;32;20093;-94
2021/05/27 03:12:43;;;;;;;6.93;1.62;;;;;;;9.81;59.73;99717.06;4388296;32;20089;-95
2021/05/27 03:15:09;;;;;;;3.60;0.90;;;;;;;9.89;59.73;99717.66;4388634;32;20481;-95
2021/05/27 03:17:36;;;;;;;6.07;1.20;;;;;;;9.96;59.74;99716.59;4401784;32;20132;-95
2021/05/27 03:20:05;;;;;;;1.95;1.30;;;;;;;10.06;59.74;99719.78;4401345;32;20094;-96
2021/05/27 03:22:31;;;;;;;4.20;1.15;;;;;;;10.01;59.75;99708.66;4401896;32;20462;-95
2021/05/27 03:24:57;;;;;;;3.20;1.25;;;;;;;9.97;59.73;99717.47;4401744;32;20101;-95
2021/05/27 03:27:22;;;;;;;3.00;0.95;;;;;;;10.09;59.73;99709.28;4389271;32;20150;-94
2021/05/27 03:29:48;;;;;;;3.67;1.15;;;;;;;10.28;59.75;99712.19;4377605;32;20090;-95
2021/05/27 03:32:13;;;;;;;6.03;1.08;;;;;;;10.20;59.75;99708.97;4395185;32;20089;-94
2021/05/27 03:34:40;;;;;;;3.33;1.00;;;;;;;10.18;59.75;99710.75;4390778;32;20102;-96
2021/05/27 03:37:06;;;;;;;5.95;1.23;;;;;;;10.37;59.75;99711.87;4405239;32;20079;-94
2021/05/27 03:39:32;;;;;;;5.05;1.00;;;;;;;10.28;59.75;99707.00;4394772;32;20084;-96
2021/05/27 03:42:10;;;;;;;3.67;1.35;;;;;;;10.33;59.75;99711.13;4410240;32;20089;-94
2021/05/27 03:44:42;;;;;;;3.28;1.12;;;;;;;10.28;59.75;99720.84;4408977;32;20075;-96
2021/05/27 03:47:10;;;;;;;6.53;2.95;;;;;;;10.58;59.77;99713.81;4407430;32;20109;-96
2021/05/27 03:49:35;;;;;;;9.00;4.93;;;;;;;10.56;59.77;99717.38;4395622;32;20112;-94
2021/05/27 03:52:00;;;;;;;7.28;4.35;;;;;;;10.66;59.77;99719.63;4385123;32;20116;-94
2021/05/27 03:54:26;;;;;;;8.27;3.83;;;;;;;10.80;59.78;99723.50;4384857;32;20133;-95
2021/05/27 03:56:51;;;;;;;6.57;2.65;;;;;;;10.76;59.77;99720.16;4381242;32;24398;-93
2021/05/27 04:02:02;;;;;;;2.28;0.88;;;;;;;11.12;59.79;99718.09;4397500;32;20117;-94
2021/05/27 04:07:14;;;;;;;3.05;0.73;;;;;;;11.13;59.79;99714.56;4396568;32;20121;-94
2021/05/27 04:09:39;;;;;;;3.33;0.95;;;;;;;11.29;59.80;99713.09;4384308;32;20082;-95
2021/05/27 04:17:34;;;;;;;3.67;1.00;;;;;;;11.44;59.81;99714.34;4406078;32;20137;-93
2021/05/27 04:20:01;;;;;;;5.18;1.58;;;;;;;11.79;59.83;99718.28;4395094;32;20122;-90
2021/05/27 04:22:26;;;;;;;8.68;1.30;;;;;;;11.76;59.83;99715.75;4401472;32;20089;-95
2021/05/27 04:24:51;;;;;;;3.90;0.98;;;;;;;11.85;59.84;99715.47;4385697;32;21879;-94
2021/05/27 04:27:17;;;;;;;2.50;1.00;;;;;;;12.11;59.85;99711.84;4381932;32;20133;-95
2021/05/27 04:29:42;;;;;;;4.43;1.12;;;;;;;12.14;59.86;99716.09;4382717;32;20158;-95
2021/05/27 04:32:51;;;;;;;2.03;0.98;;;;;;;12.32;59.86;99720.59;4382354;32;20110;-95
2021/05/27 04:34:53;;;;;;;2.85;1.20;;;;;;;12.43;59.88;99714.94;4394749;32;20094;-96
2021/05/27 04:37:19;;;;;;;2.15;1.12;;;;;;;12.65;59.87;99712.31;4381814;32;20474;-95
2021/05/27 04:39:44;;;;;;;2.65;0.90;;;;;;;13.00;59.90;99713.44;4383564;32;20134;-96
2021/05/27 04:42:10;;;;;;;3.15;0.95;;;;;;;13.09;59.90;99713.91;4383009;32;20133;-96
2021/05/27 04:44:36;;;;;;;5.47;0.90;;;;;;;13.22;59.91;99714.25;4396687;32;20074;-96
2021/05/27 04:47:44;;;;;;;4.25;0.82;;;;;;;13.28;59.91;99708.78;4398561;32;20082;-95
2021/05/27 04:50:32;;;;;;;1.92;0.90;;;;;;;13.66;59.94;99708.81;4349043;33;20117;-96
2021/05/27 04:52:57;;;;;;;3.90;0.90;;;;;;;14.00;59.95;99716.00;4379110;32;20478;-95
2021/05/27 04:55:23;;;;;;;4.30;1.20;;;;;;;14.14;59.96;99701.31;4395273;32;20114;-96
2021/05/27 04:57:49;;;;;;;2.53;1.00;;;;;;;14.25;59.96;99702.59;4386070;32;20114;-96
2021/05/27 05:00:21;;;;;;;2.28;0.52;;;;;;;14.27;59.97;99709.44;4404433;32;20094;-96
2021/05/27 05:02:47;;;;;;;5.45;2.30;;;;;;;14.74;60.00;99716.81;4387225;32;20102;-96
2021/05/27 05:05:13;;;;;;;4.03;0.90;;;;;;;14.85;60.00;99705.78;4384770;32;20122;-94
2021/05/27 05:07:39;;;;;;;2.20;1.10;;;;;;;14.98;60.01;99706.88;4392203;32;20141;-93
2021/05/27 05:10:06;;;;;;;1.92;1.17;;;;;;;15.17;60.02;99714.66;4352389;32;20098;-91
2021/05/27 05:12:44;;;;;;;3.12;0.73;;;;;;;15.50;60.04;99705.00;4377081;32;20729;-91
2021/05/27 05:15:13;;;;;;;1.37;0.62;;;;;;;15.62;60.04;99712.28;4366499;32;20829;-91
2021/05/27 05:17:38;;;;;;;3.53;0.90;;;;;;;15.77;60.05;99709.75;4374568;32;20114;-90
2021/05/27 05:20:04;;;;;;;4.18;1.37;;;;;;;16.03;60.06;99706.53;4363979;32;20384;-92
2021/05/27 05:22:30;;;;;;;3.53;1.12;;;;;;;16.20;60.07;99701.22;4361581;32;20149;-91
2021/05/27 05:24:56;;;;;;;2.92;0.90;;;;;;;16.20;60.07;99706.47;4365486;32;20178;-91
2021/05/27 05:27:22;;;;;;;4.20;0.93;;;;;;;16.54;60.08;99710.66;4390584;32;20118;-91
2021/05/27 05:29:47;;;;;;;3.50;1.00;;;;;;;16.76;60.10;99709.44;4377671;32;20140;-91
2021/05/27 05:32:13;;;;;;;2.90;1.20;;;;;;;16.67;60.09;99707.38;4392075;32;20114;-95
2021/05/27 05:34:38;;;;;;;4.32;1.30;;;;;;;16.63;60.10;99701.41;4380103;32;20114;-93
2021/05/27 05:37:05;;;;;;;3.58;1.60;;;;;;;16.80;60.11;99701.31;4380073;32;20094;-93
2021/05/27 05:39:30;;;;;;;2.25;1.00;;;;;;;17.00;60.11;99699.28;4380145;32;20160;-92
2021/05/27 05:41:56;;;;;;;4.62;1.12;;;;;;;17.35;60.14;99705.09;4367688;32;20139;-93
2021/05/27 05:44:21;;;;;;;5.10;1.50;;;;;;;17.54;60.15;99708.28;4366464;32;28052;-93
2021/05/27 05:46:47;;;;;;;4.57;2.00;;;;;;;17.48;60.14;99704.22;4367660;32;20140;-93
2021/05/27 05:49:12;;;;;;;5.93;1.60;;;;;;;17.50;60.14;99709.41;4366280;32;20094;-94
2021/05/27 05:51:37;;;;;;;4.28;1.33;;;;;;;17.61;60.14;99708.75;4354897;32;20530;-93
2021/05/27 05:54:03;;;;;;;2.75;1.12;;;;;;;17.68;60.15;99702.19;4366111;32;20458;-92
2021/05/27 05:56:28;;;;;;;3.22;1.30;;;;;;;17.56;60.15;99701.16;4366162;32;20154;-93
2021/05/27 05:58:54;;;;;;;7.50;1.25;;;;;;;17.70;60.15;99716.94;4379348;32;20471;-92
2021/05/27 06:01:19;;;;;;;2.58;1.45;;;;;;;17.79;60.16;99715.56;4367610;32;20181;-91
2021/05/27 06:03:44;;;;;;;2.83;1.17;;;;;;;17.75;60.15;99714.06;4368345;32;20157;-92
2021/05/27 06:06:11;;;;;;;3.60;1.30;;;;;;;17.79;60.16;99715.56;4367563;32;20541;-93
2021/05/27 06:08:36;;;;;;;2.85;1.10;;;;;;;18.08;60.18;99722.47;4366698;32;20772;-93
2021/05/27 06:11:02;;;;;;;1.95;1.00;;;;;;;18.28;60.19;99713.28;4366064;32;20110;-93
2021/05/27 06:13:27;;;;;;;6.03;1.27;;;;;;;18.41;60.19;99718.59;4366283;32;20150;-92
2021/05/27 06:15:53;;;;;;;3.67;1.00;;;;;;;18.36;60.18;99715.44;4367102;32;20118;-94
2021/05/27 06:18:18;;;;;;;3.08;1.27;;;;;;;18.49;60.20;99708.44;4366321;32;20519;-93
2021/05/27 06:20:44;;;;;;;1.95;0.80;;;;;;;18.72;60.20;99703.47;4366684;32;20107;-92
2021/05/27 06:23:09;;;;;;;2.45;0.80;;;;;;;18.90;60.22;99710.97;4366357;32;20744;-91
2021/05/27 06:25:37;;;;;;;1.85;0.88;;;;;;;19.26;60.24;99704.19;4378883;32;20664;-95
2021/05/27 06:28:02;;;;;;;2.95;0.80;;;;;;;19.19;60.23;99695.84;4378637;32;20094;-94
2021/05/27 06:30:28;;;;;;;1.00;0.60;;;;;;;19.42;60.24;99703.97;4365647;32;20156;-93
2021/05/27 06:32:54;;;;;;;3.67;0.73;;;;;;;19.72;60.26;99699.22;4365932;32;20172;-92
2021/05/27 06:35:19;;;;;;;3.45;1.15;;;;;;;19.90;60.27;99697.94;4391108;32;20128;-92
2021/05/27 06:37:45;;;;;;;1.17;0.60;;;;;;;19.87;60.27;99698.16;4365742;32;20113;-92
2021/05/27 06:40:15;;;;;;;2.50;0.98;;;;;;;20.15;60.29;99691.72;4366205;32;20129;-93
2021/05/27 06:42:41;;;;;;;2.60;1.00;;;;;;;20.43;60.30;99690.56;4379306;32;20097;-92
2021/05/27 06:45:07;;;;;;;3.53;0.90;;;;;;;20.60;60.30;99689.34;4378656;32;20201;-93
2021/05/27 06:47:32;;;;;;;5.00;1.50;;;;;;;20.92;60.32;99691.38;4391171;32;20116;-94
2021/05/27 06:49:58;;;;;;;4.55;1.30;;;;;;;21.32;60.34;99692.69;4369179;32;20103;-94
2021/05/27 06:52:23;;;;;;;1.87;1.05;;;;;;;21.37;60.35;99687.87;4380623;32;29776;-94
2021/05/27 06:54:51;;;;;;;2.67;1.30;;;;;;;21.60;60.36;99690.53;4379337;32;20173;-93
2021/05/27 06:57:16;;;;;;;5.37;0.98;;;;;;;21.75;60.37;99697.25;4370994;32;20167;-92
2021/05/27 06:59:41;;;;;;;3.28;1.50;;;;;;;21.42;60.35;99692.81;4369045;32;20094;-92
2021/05/27 07:02:07;;;;;;;3.37;1.20;;;;;;;21.30;60.34;99702.56;4369534;32;20134;-94
2021/05/27 07:04:32;;;;;;;3.45;1.08;;;;;;;21.07;60.33;99701.63;4367870;32;20096;-93
2021/05/27 07:06:58;;;;;;;3.33;1.25;;;;;;;20.99;60.32;99704.00;4367660;32;20153;-94
2021/05/27 07:09:23;;;;;;;2.58;1.10;;;;;;;20.97;60.33;99703.28;4366395;32;21094;-92
2021/05/27 07:11:49;;;;;;;1.87;1.20;;;;;;;21.12;60.34;99701.28;4367072;32;20416;-92
2021/05/27 07:14:14;;;;;;;1.45;0.85;;;;;;;21.31;60.34;99700.75;4367267;32;20129;-94
2021/05/27 07:16:39;;;;;;;3.75;0.90;;;;;;;21.65;60.37;99704.25;4367774;32;20477;-95
2021/05/27 07:19:05;;;;;;;5.32;1.02;;;;;;;21.88;60.38;99700.62;4362641;32;20106;-93
2021/05/27 07:21:30;;;;;;;2.45;0.80;;;;;;;22.01;60.38;99700.50;4366432;32;20161;-94
2021/05/27 07:23:56;;;;;;;2.20;0.82;;;;;;;21.87;60.38;99693.66;4365291;32;20154;-92
2021/05/27 07:26:21;;;;;;;1.95;1.00;;;;;;;22.04;60.38;99685.22;4366395;32;20462;-93
2021/05/27 07:28:47;;;;;;;3.05;0.98;;;;;;;22.13;60.39;99690.75;4354705;32;20226;-92
2021/05/27 07:31:12;;;;;;;2.83;1.08;;;;;;;22.04;60.39;99684.41;4366161;32;20174;-92
2021/05/27 07:33:38;;;;;;;4.07;0.80;;;;;;;22.02;60.39;99689.78;4366617;32;20159;-93
2021/05/27 07:36:04;;;;;;;2.45;1.00;;;;;;;22.14;60.40;99687.97;4379573;32;20118;-93
2021/05/27 07:38:30;;;;;;;2.67;0.80;;;;;;;22.07;60.39;99684.12;4392082;32;20086;-92
2021/05/27 07:40:56;;;;;;;3.83;1.00;;;;;;;22.12;60.39;99686.41;4366668;32;20144;-92
2021/05/27 07:43:21;;;;;;;6.18;0.82;;;;;;;22.10;60.40;99688.34;4366396;32;20133;-92
2021/05/27 07:45:46;;;;;;;2.25;0.80;;;;;;;22.22;60.40;99680.22;4366751;32;21891;-93
2021/05/27 07:48:12;;;;;;;1.65;0.70;;;;;;;22.23;60.40;99681.06;4392257;32;20146;-92
2021/05/27 07:50:37;;;;;;;5.87;1.10;;;;;;;22.07;60.39;99683.31;4365338;32;20149;-92
2021/05/27 07:53:03;;;;;;;1.62;0.70;;;;;;;22.16;60.41;99683.38;4366064;32;20140;-92
2021/05/27 07:55:28;;;;;;;5.12;1.00;;;;;;;22.42;60.41;99680.41;4363970;32;20482;-93
2021/05/27 07:57:54;;;;;;;3.17;0.70;;;;;;;22.54;60.41;99676.78;4364209;32;20110;-93
2021/05/27 08:00:20;;;;;;;3.80;1.02;;;;;;;22.63;60.41;99668.03;4352102;32;20173;-96
2021/05/27 08:02:48;;;;;;;2.20;0.70;;;;;;;22.65;60.42;99676.69;4351737;32;20107;-95
2021/05/27 08:05:14;;;;;;;2.65;0.80;;;;;;;22.75;60.43;99672.34;4364109;32;20098;-93
2021/05/27 08:07:40;;;;;;;3.70;0.73;;;;;;;22.49;60.42;99678.97;4363705;32;20102;-93
2021/05/27 08:10:06;;;;;;;3.03;0.77;;;;;;;22.72;60.43;99672.59;4351412;32;20130;-93
2021/05/27 08:12:31;;;;;;;3.10;0.90;;;;;;;22.80;60.44;99675.44;4364289;32;20089;-93
2021/05/27 08:14:57;;;;;;;2.12;0.85;;;;;;;22.99;60.44;99676.59;4363681;32;20401;-94
2021/05/27 08:17:23;;;;;;;3.60;0.82;;;;;;;23.08;60.44;99662.50;4351658;32;20125;-95
2021/05/27 08:19:48;;;;;;;2.08;0.77;;;;;;;23.26;60.46;99672.41;4351774;32;20107;-93
2021/05/27 08:22:16;;;;;;;3.10;0.93;;;;;;;23.46;60.46;99672.50;4363917;32;20130;-91
2021/05/27 08:24:43;;;;;;;3.97;1.10;;;;;;;23.68;60.48;99676.84;4351859;32;20098;-94
2021/05/27 08:27:09;;;;;;;1.27;0.80;;;;;;;23.95;60.49;99668.25;4376733;32;20091;-90
2021/05/27 08:29:34;;;;;;;1.70;0.80;;;;;;;23.88;60.48;99675.91;4363569;32;20869;-92
2021/05/27 08:32:00;;;;;;;1.12;0.80;;;;;;;24.05;60.50;99675.25;4351611;32;20144;-90
2021/05/27 08:34:25;;;;;;;1.98;1.00;;;;;;;24.14;60.50;99679.78;4351127;32;21959;-89
2021/05/27 08:36:51;;;;;;;5.65;0.95;;;;;;;24.18;60.50;99675.00;4364850;32;20138;-94
2021/05/27 08:39:18;;;;;;;1.35;0.80;;;;;;;24.14;60.50;99678.94;4353155;32;20114;-91
2021/05/27 08:41:44;;;;;;;3.00;0.98;;;;;;;24.02;60.49;99680.84;4377075;32;20182;-92
2021/05/27 08:44:10;;;;;;;2.20;0.98;;;;;;;23.97;60.48;99687.56;4363864;32;20117;-90
2021/05/27 08:46:36;;;;;;;3.45;1.00;;;;;;;24.00;60.49;99687.28;4375809;32;20114;-92
2021/05/27 08:49:02;;;;;;;2.28;0.82;;;;;;;24.34;60.51;99680.66;4350808;32;20111;-91
2021/05/27 08:51:33;;;;;;;2.17;0.70;;;;;;;24.45;60.52;99679.69;4351319;32;20126;-90
2021/05/27 08:53:58;;;;;;;2.58;0.80;;;;;;;24.66;60.54;99675.06;4351944;32;20568;-90
2021/05/27 08:56:23;;;;;;;1.90;0.60;;;;;;;24.82;60.53;99678.97;4361927;32;20150;-92
2021/05/27 08:58:49;;;;;;;2.58;0.82;;;;;;;25.01;60.55;99673.66;4365459;32;21972;-90
2021/05/27 09:01:20;;;;;;;0.60;0.60;;;;;;;25.06;60.54;99669.56;4353452;32;20130;-90
2021/05/27 09:03:46;;;;;;;1.52;0.55;;;;;;;24.87;60.54;99671.41;4366934;32;20102;-91
2021/05/27 09:06:11;;;;;;;1.62;0.60;;;;;;;24.90;60.54;99679.97;4378499;32;20095;-91
2021/05/27 09:08:39;;;;;;;2.78;0.60;;;;;;;24.91;60.54;99675.47;4378194;32;20106;-89
2021/05/27 09:11:08;;;;;;;1.33;0.40;;;;;;;25.03;60.55;99672.53;4391025;32;20098;-89
2021/05/27 09:13:35;;;;;;;2.17;0.62;;;;;;;25.20;60.55;99667.44;4391540;32;20514;-90
2021/05/27 09:16:10;;;;;;;2.67;0.50;;;;;;;25.40;60.57;99659.25;4390852;32;20121;-92
2021/05/27 09:18:41;;;;;;;1.90;0.70;;;;;;;25.11;60.55;99663.84;4378668;32;20102;-93
2021/05/27 09:21:11;;;;;;;1.48;0.30;;;;;;;25.14;60.55;99679.53;4390938;32;20165;-91
2021/05/27 09:23:38;;;;;;;0.77;0.40;;;;;;;25.02;60.54;99665.53;4390476;32;20098;-90
2021/05/27 09:26:12;;;;;;;2.05;0.50;;;;;;;25.16;60.56;99666.06;4378042;32;20106;-89
2021/05/27 09:28:37;;;;;;;0.90;0.40;;;;;;;25.04;60.55;99665.37;4384946;32;20128;-90
2021/05/27 09:31:08;;;;;;;3.12;0.47;;;;;;;25.36;60.57;99659.69;4380691;32;28963;-91
2021/05/27 09:33:40;;;;;;;2.33;0.40;;;;;;;25.28;60.56;99656.91;4401488;32;20116;-89
2021/05/27 09:36:10;;;;;;;2.67;0.50;;;;;;;25.35;60.57;99653.53;4394030;32;20470;-89
2021/05/27 09:38:46;;;;;;;1.40;0.40;;;;;;;25.46;60.58;99657.00;4365540;32;20110;-90
2021/05/27 09:41:25;;;;;;;0.55;0.30;;;;;;;25.53;60.58;99658.06;4390165;32;20166;-89
2021/05/27 09:44:00;;;;;;;3.40;0.30;;;;;;;25.81;60.59;99657.16;4365220;32;20148;-90
2021/05/27 09:46:27;;;;;;;0.88;0.35;;;;;;;25.75;60.59;99652.38;4390447;32;20082;-91
2021/05/27 09:49:05;;;;;;;1.35;0.50;;;;;;;25.58;60.57;99661.16;4365021;32;20106;-90
2021/05/27 09:51:31;;;;;;;0.75;0.40;;;;;;;25.78;60.59;99659.25;4377377;32;20451;-94
2021/05/27 09:53:57;;;;;;;0.62;0.30;;;;;;;25.96;60.60;99652.97;4365245;32;20146;-91
2021/05/27 09:56:36;;;;;;;0.85;0.30;;;;;;;26.06;60.60;99646.75;4390070;32;20194;-92
2021/05/27 09:59:01;;;;;;;1.48;0.32;;;;;;;26.01;60.60;99658.69;4377620;32;20106;-91
2021/05/27 10:01:27;;;;;;;1.35;0.30;;;;;;;26.09;60.61;99654.47;4377492;32;20129;-91
2021/05/27 10:03:52;;;;;;;0.45;0.30;;;;;;;26.21;60.61;99647.91;4364956;32;20126;-89
2021/05/27 10:06:18;;;;;;;0.90;0.40;;;;;;;26.34;60.62;99653.75;4364665;32;20177;-90
2021/05/27 10:09:02;;;;;;;1.02;0.30;;;;;;;26.27;60.61;99644.66;4377122;32;22193;-91
2021/05/27 10:11:27;;;;;;;1.45;0.45;;;;;;;26.54;60.62;99635.75;4377485;32;20110;-92
2021/05/27 10:13:53;;;;;;;0.82;0.43;;;;;;;26.47;60.63;99646.19;4364813;32;20136;-92
2021/05/27 10:16:21;;;;;;;2.72;0.50;;;;;;;26.45;60.62;99655.34;4366946;32;20102;-91
2021/05/27 10:18:47;;;;;;;0.60;0.40;;;;;;;26.52;60.62;99646.59;4392175;32;20149;-90
2021/05/27 10:21:12;;;;;;;0.43;0.40;;;;;;;26.54;60.62;99644.59;4366844;32;20114;-90
2021/05/27 10:23:38;;;;;;;1.77;0.77;;;;;;;26.90;60.65;99647.19;4366683;32;20181;-90
2021/05/27 10:26:03;;;;;;;2.17;0.35;;;;;;;27.14;60.66;99639.38;4367151;32;20503;-93
2021/05/27 10:28:29;;;;;;;1.40;0.55;;;;;;;27.00;60.65;99645.31;4367179;32;20113;-90
2021/05/27 10:30:55;;;;;;;0.85;0.40;;;;;;;27.04;60.66;99638.66;4367235;32;20098;-93
2021/05/27 10:33:20;;;;;;;1.37;0.43;;;;;;;26.69;60.63;99646.69;4367236;32;20156;-90
2021/05/27 10:35:55;;;;;;;3.22;0.30;;;;;;;26.57;60.63;99649.63;4366914;32;20106;-92
2021/05/27 10:38:39;;;;;;;1.10;0.70;;;;;;;26.68;60.64;99643.19;4391441;32;20107;-91
2021/05/27 10:41:27;;;;;;;1.92;0.50;;;;;;;26.80;60.64;99647.31;4391746;32;20132;-91
2021/05/27 10:43:59;;;;;;;2.65;0.50;;;;;;;26.81;60.64;99632.12;4392099;32;20106;-94
2021/05/27 10:46:25;;;;;;;1.67;0.30;;;;;;;26.78;60.64;99635.94;4392527;32;20110;-89
2021/05/27 10:48:50;;;;;;;2.65;0.50;;;;;;;26.31;60.61;99635.34;4379212;32;20145;-90
2021/05/27 10:51:45;;;;;;;1.15;0.30;;;;;;;26.42;60.63;99637.81;4366657;32;20434;-93
2021/05/27 10:54:15;;;;;;;1.25;0.47;;;;;;;26.60;60.63;99633.28;4368003;32;20467;-91
2021/05/27 10:56:44;;;;;;;1.25;0.37;;;;;;;26.58;60.63;99632.63;4379577;32;20439;-92
2021/05/27 10:59:19;;;;;;;0.80;0.30;;;;;;;26.54;60.62;99639.25;4367025;32;20110;-92
2021/05/27 11:01:44;;;;;;;0.82;0.45;;;;;;;26.31;60.62;99630.84;4367036;32;20136;-93
2021/05/27 11:04:24;;;;;;;1.73;0.53;;;;;;;26.13;60.61;99639.81;4391881;32;20391;-91
2021/05/27 11:06:50;;;;;;;0.75;0.30;;;;;;;26.27;60.61;99637.47;4367102;32;20167;-91
2021/05/27 11:09:16;;;;;;;1.62;0.90;;;;;;;26.24;60.62;99628.91;4367140;32;20170;-92
2021/05/27 11:12:04;;;;;;;2.15;0.65;;;;;;;26.31;60.62;99644.19;4392315;32;20222;-93
2021/05/27 11:14:45;;;;;;;0.80;0.50;;;;;;;26.31;60.62;99617.50;4382244;32;20140;-93
2021/05/27 11:17:18;;;;;;;0.75;0.43;;;;;;;26.60;60.63;99627.13;4394962;32;20106;-93
2021/05/27 11:20:02;;;;;;;0.82;0.40;;;;;;;26.53;60.63;99632.25;4392639;32;20153;-92
2021/05/27 11:25:15;;;;;;;2.12;0.57;;;;;;;26.42;60.62;99620.94;4393799;32;20086;-96
2021/05/27 11:27:55;;;;;;;1.65;0.50;;;;;;;26.67;60.64;99617.47;4392805;32;20174;-92
2021/05/27 11:30:23;;;;;;;1.48;0.40;;;;;;;26.84;60.64;99615.78;4392439;32;21004;-91
2021/05/27 11:32:50;;;;;;;1.08;0.40;;;;;;;26.56;60.63;99620.41;4379701;32;20152;-90
2021/05/27 11:35:17;;;;;;;2.03;0.60;;;;;;;26.44;60.62;99619.81;4379949;32;20947;-92
2021/05/27 11:37:43;;;;;;;1.20;0.52;;;;;;;26.42;60.63;99619.13;4380621;32;20087;-91
2021/05/27 11:40:10;;;;;;;1.67;0.32;;;;;;;26.52;60.62;99625.22;4368000;32;20141;-94
2021/05/27 11:42:35;;;;;;;2.17;0.88;;;;;;;26.54;60.63;99617.91;4391626;32;20160;-92
2021/05/27 11:45:02;;;;;;;2.17;0.43;;;;;;;26.67;60.64;99616.66;4367134;32;21849;-91
2021/05/27 11:47:27;;;;;;;0.73;0.45;;;;;;;26.69;60.63;99615.50;4368042;32;20098;-89
2021/05/27 11:50:09;;;;;;;3.28;0.80;;;;;;;26.92;60.64;99613.16;4392167;32;20107;-92
2021/05/27 11:52:34;;;;;;;2.80;0.50;;;;;;;26.90;60.65;99620.50;4393929;32;20090;-92
2021/05/27 11:54:59;;;;;;;2.67;0.50;;;;;;;26.65;60.64;99607.97;4365470;32;20144;-93
2021/05/27 11:57:42;;;;;;;1.05;0.43;;;;;;;26.73;60.64;99616.84;4364828;32;20090;-91